sensor_id;sensor_type;location;lat;lon;timestamp;P1;durP1;ratioP1;P2;durP2;ratioP2
46653;SDS011;38960;51.074;17.004;2022-12-11T00:00:40;65.77;;;35.43;;
46653;SDS011;38960;51.074;17.004;2022-12-11T00:03:06;62.13;;;33.97;;
46653;SDS011;38960;51.074;17.004;2022-12-11T00:05:31;64.30;;;34.60;;
46653;SDS011;38960;51.074;17.004;2022-12-11T00:07:57;66.67;;;34.90;;
46653;SDS011;38960;51.074;17.004;2022-12-11T00:10:23;69.43;;;36.90;;
46653;SDS011;38960;51.074;17.004;2022-12-11T00:12:48;62.93;;;35.37;;
46653;SDS011;38960;51.074;17.004;2022-12-11T00:15:14;69.67;;;37.27;;
46653;SDS011;38960;51.074;17.004;2022-12-11T00:17:39;63.20;;;34.70;;
46653;SDS011;38960;51.074;17.004;2022-12-11T00:20:05;67.70;;;36.67;;
46653;SDS011;38960;51.074;17.004;2022-12-11T00:22:32;65.97;;;35.97;;
46653;SDS011;38960;51.074;17.004;2022-12-11T00:24:57;59.00;;;33.07;;
46653;SDS011;38960;51.074;17.004;2022-12-11T00:27:23;68.00;;;35.83;;
46653;SDS011;38960;51.074;17.004;2022-12-11T00:29:49;61.77;;;36.10;;
46653;SDS011;38960;51.074;17.004;2022-12-11T00:32:14;64.50;;;36.87;;
46653;SDS011;38960;51.074;17.004;2022-12-11T00:34:39;63.90;;;35.53;;
46653;SDS011;38960;51.074;17.004;2022-12-11T00:37:05;66.07;;;35.30;;
46653;SDS011;38960;51.074;17.004;2022-12-11T00:39:31;70.93;;;36.97;;
46653;SDS011;38960;51.074;17.004;2022-12-11T00:41:56;61.60;;;35.27;;
46653;SDS011;38960;51.074;17.004;2022-12-11T00:44:22;66.17;;;35.93;;
46653;SDS011;38960;51.074;17.004;2022-12-11T00:46:48;63.30;;;35.53;;
46653;SDS011;38960;51.074;17.004;2022-12-11T00:49:13;65.27;;;35.57;;
46653;SDS011;38960;51.074;17.004;2022-12-11T00:51:39;62.83;;;34.87;;
46653;SDS011;38960;51.074;17.004;2022-12-11T00:54:04;64.10;;;36.47;;
46653;SDS011;38960;51.074;17.004;2022-12-11T00:56:32;67.03;;;35.23;;
46653;SDS011;38960;51.074;17.004;2022-12-11T00:58:58;63.40;;;35.23;;
46653;SDS011;38960;51.074;17.004;2022-12-11T01:01:23;67.07;;;35.27;;
46653;SDS011;38960;51.074;17.004;2022-12-11T01:03:50;67.10;;;35.30;;
46653;SDS011;38960;51.074;17.004;2022-12-11T01:06:18;62.40;;;34.07;;
46653;SDS011;38960;51.074;17.004;2022-12-11T01:08:46;65.43;;;35.40;;
46653;SDS011;38960;51.074;17.004;2022-12-11T01:11:12;60.70;;;33.47;;
46653;SDS011;38960;51.074;17.004;2022-12-11T01:13:39;60.53;;;33.63;;
46653;SDS011;38960;51.074;17.004;2022-12-11T01:16:06;65.93;;;34.93;;
46653;SDS011;38960;51.074;17.004;2022-12-11T01:18:32;65.70;;;35.40;;
46653;SDS011;38960;51.074;17.004;2022-12-11T01:20:58;59.60;;;31.97;;
46653;SDS011;38960;51.074;17.004;2022-12-11T01:23:23;64.73;;;35.97;;
46653;SDS011;38960;51.074;17.004;2022-12-11T01:25:48;62.73;;;35.07;;
46653;SDS011;38960;51.074;17.004;2022-12-11T01:28:14;63.17;;;33.87;;
46653;SDS011;38960;51.074;17.004;2022-12-11T01:30:40;58.10;;;33.93;;
46653;SDS011;38960;51.074;17.004;2022-12-11T01:33:07;66.00;;;34.70;;
46653;SDS011;38960;51.074;17.004;2022-12-11T01:35:33;60.63;;;33.33;;
46653;SDS011;38960;51.074;17.004;2022-12-11T01:37:59;56.50;;;32.93;;
46653;SDS011;38960;51.074;17.004;2022-12-11T01:40:24;57.47;;;33.20;;
46653;SDS011;38960;51.074;17.004;2022-12-11T01:42:50;62.37;;;33.50;;
46653;SDS011;38960;51.074;17.004;2022-12-11T01:45:24;59.20;;;33.83;;
46653;SDS011;38960;51.074;17.004;2022-12-11T01:47:57;56.80;;;32.67;;
46653;SDS011;38960;51.074;17.004;2022-12-11T01:50:27;56.33;;;31.77;;
46653;SDS011;38960;51.074;17.004;2022-12-11T01:52:53;58.10;;;32.43;;
46653;SDS011;38960;51.074;17.004;2022-12-11T01:55:19;60.80;;;32.40;;
46653;SDS011;38960;51.074;17.004;2022-12-11T01:57:46;59.00;;;31.37;;
46653;SDS011;38960;51.074;17.004;2022-12-11T02:00:13;56.20;;;32.73;;
46653;SDS011;38960;51.074;17.004;2022-12-11T02:02:39;54.93;;;29.93;;
46653;SDS011;38960;51.074;17.004;2022-12-11T02:05:05;58.20;;;32.03;;
46653;SDS011;38960;51.074;17.004;2022-12-11T02:07:34;51.30;;;30.40;;
46653;SDS011;38960;51.074;17.004;2022-12-11T02:12:40;58.13;;;30.53;;
46653;SDS011;38960;51.074;17.004;2022-12-11T02:15:16;53.30;;;30.80;;
46653;SDS011;38960;51.074;17.004;2022-12-11T02:17:47;57.03;;;32.27;;
46653;SDS011;38960;51.074;17.004;2022-12-11T02:20:52;54.80;;;30.90;;
46653;SDS011;38960;51.074;17.004;2022-12-11T02:28:41;45.87;;;28.40;;
46653;SDS011;38960;51.074;17.004;2022-12-11T02:36:44;49.53;;;29.03;;
46653;SDS011;38960;51.074;17.004;2022-12-11T02:39:11;52.37;;;29.87;;
46653;SDS011;38960;51.074;17.004;2022-12-11T02:41:48;47.27;;;28.03;;
46653;SDS011;38960;51.074;17.004;2022-12-11T02:44:16;49.77;;;27.50;;
46653;SDS011;38960;51.074;17.004;2022-12-11T02:46:43;46.37;;;27.93;;
46653;SDS011;38960;51.074;17.004;2022-12-11T02:49:09;48.60;;;28.40;;
46653;SDS011;38960;51.074;17.004;2022-12-11T02:51:37;49.00;;;27.20;;
46653;SDS011;38960;51.074;17.004;2022-12-11T02:54:05;50.53;;;27.63;;
46653;SDS011;38960;51.074;17.004;2022-12-11T02:59:25;48.57;;;26.90;;
46653;SDS011;38960;51.074;17.004;2022-12-11T03:01:53;46.03;;;27.47;;
46653;SDS011;38960;51.074;17.004;2022-12-11T03:04:18;48.53;;;27.63;;
46653;SDS011;38960;51.074;17.004;2022-12-11T03:06:49;46.33;;;27.00;;
46653;SDS011;38960;51.074;17.004;2022-12-11T03:09:16;46.90;;;27.50;;
46653;SDS011;38960;51.074;17.004;2022-12-11T03:11:42;46.03;;;27.33;;
46653;SDS011;38960;51.074;17.004;2022-12-11T03:14:07;44.13;;;26.37;;
46653;SDS011;38960;51.074;17.004;2022-12-11T03:16:37;47.23;;;27.20;;
46653;SDS011;38960;51.074;17.004;2022-12-11T03:19:13;51.27;;;28.13;;
46653;SDS011;38960;51.074;17.004;2022-12-11T03:22:06;49.17;;;27.70;;
46653;SDS011;38960;51.074;17.004;2022-12-11T03:27:26;51.07;;;27.27;;
46653;SDS011;38960;51.074;17.004;2022-12-11T03:29:57;51.97;;;28.43;;
46653;SDS011;38960;51.074;17.004;2022-12-11T03:32:25;50.80;;;29.77;;
46653;SDS011;38960;51.074;17.004;2022-12-11T03:34:56;49.47;;;28.63;;
46653;SDS011;38960;51.074;17.004;2022-12-11T03:37:34;48.00;;;28.50;;
46653;SDS011;38960;51.074;17.004;2022-12-11T03:40:03;51.97;;;27.50;;
46653;SDS011;38960;51.074;17.004;2022-12-11T03:42:32;49.57;;;27.43;;
46653;SDS011;38960;51.074;17.004;2022-12-11T03:44:58;45.30;;;27.13;;
46653;SDS011;38960;51.074;17.004;2022-12-11T03:47:24;51.90;;;28.83;;
46653;SDS011;38960;51.074;17.004;2022-12-11T03:49:51;50.77;;;29.63;;
46653;SDS011;38960;51.074;17.004;2022-12-11T03:52:17;43.17;;;25.93;;
46653;SDS011;38960;51.074;17.004;2022-12-11T03:54:45;48.67;;;28.23;;
46653;SDS011;38960;51.074;17.004;2022-12-11T03:57:12;44.77;;;27.57;;
46653;SDS011;38960;51.074;17.004;2022-12-11T03:59:40;50.73;;;29.27;;
46653;SDS011;38960;51.074;17.004;2022-12-11T04:02:06;47.43;;;26.50;;
46653;SDS011;38960;51.074;17.004;2022-12-11T04:04:38;49.20;;;27.40;;
46653;SDS011;38960;51.074;17.004;2022-12-11T04:07:05;50.30;;;27.53;;
46653;SDS011;38960;51.074;17.004;2022-12-11T04:09:31;50.30;;;29.47;;
46653;SDS011;38960;51.074;17.004;2022-12-11T04:11:57;49.80;;;27.43;;
46653;SDS011;38960;51.074;17.004;2022-12-11T04:14:22;51.57;;;28.03;;
46653;SDS011;38960;51.074;17.004;2022-12-11T04:17:20;48.73;;;27.00;;
46653;SDS011;38960;51.074;17.004;2022-12-11T04:20:05;52.93;;;28.83;;
46653;SDS011;38960;51.074;17.004;2022-12-11T04:22:49;48.70;;;28.90;;
46653;SDS011;38960;51.074;17.004;2022-12-11T04:25:33;50.63;;;28.47;;
46653;SDS011;38960;51.074;17.004;2022-12-11T04:27:59;52.67;;;28.80;;
46653;SDS011;38960;51.074;17.004;2022-12-11T04:30:24;48.63;;;26.83;;
46653;SDS011;38960;51.074;17.004;2022-12-11T04:32:50;46.07;;;27.10;;
46653;SDS011;38960;51.074;17.004;2022-12-11T04:35:17;47.83;;;27.63;;
46653;SDS011;38960;51.074;17.004;2022-12-11T04:37:43;50.27;;;29.17;;
46653;SDS011;38960;51.074;17.004;2022-12-11T04:40:10;47.70;;;28.77;;
46653;SDS011;38960;51.074;17.004;2022-12-11T04:42:37;46.37;;;27.77;;
46653;SDS011;38960;51.074;17.004;2022-12-11T04:45:03;48.07;;;29.37;;
46653;SDS011;38960;51.074;17.004;2022-12-11T04:47:29;48.90;;;28.47;;
46653;SDS011;38960;51.074;17.004;2022-12-11T04:49:54;45.43;;;27.17;;
46653;SDS011;38960;51.074;17.004;2022-12-11T04:52:20;45.03;;;27.50;;
46653;SDS011;38960;51.074;17.004;2022-12-11T04:54:46;44.93;;;27.37;;
46653;SDS011;38960;51.074;17.004;2022-12-11T04:57:11;42.97;;;25.83;;
46653;SDS011;38960;51.074;17.004;2022-12-11T04:59:37;45.87;;;27.50;;
46653;SDS011;38960;51.074;17.004;2022-12-11T05:02:02;50.17;;;26.77;;
46653;SDS011;38960;51.074;17.004;2022-12-11T05:04:32;41.30;;;27.03;;
46653;SDS011;38960;51.074;17.004;2022-12-11T05:06:58;51.97;;;27.97;;
46653;SDS011;38960;51.074;17.004;2022-12-11T05:09:24;40.80;;;25.53;;
46653;SDS011;38960;51.074;17.004;2022-12-11T05:11:50;42.97;;;25.97;;
46653;SDS011;38960;51.074;17.004;2022-12-11T05:14:16;45.13;;;25.13;;
46653;SDS011;38960;51.074;17.004;2022-12-11T05:16:41;39.77;;;25.17;;
46653;SDS011;38960;51.074;17.004;2022-12-11T05:19:07;41.00;;;25.30;;
46653;SDS011;38960;51.074;17.004;2022-12-11T05:21:32;41.93;;;26.20;;
46653;SDS011;38960;51.074;17.004;2022-12-11T05:23:58;38.90;;;24.40;;
46653;SDS011;38960;51.074;17.004;2022-12-11T05:26:23;37.43;;;23.50;;
46653;SDS011;38960;51.074;17.004;2022-12-11T05:28:49;35.63;;;23.17;;
46653;SDS011;38960;51.074;17.004;2022-12-11T05:31:18;38.17;;;23.97;;
46653;SDS011;38960;51.074;17.004;2022-12-11T05:33:46;37.27;;;22.63;;
46653;SDS011;38960;51.074;17.004;2022-12-11T05:36:17;34.57;;;22.27;;
46653;SDS011;38960;51.074;17.004;2022-12-11T05:38:50;38.93;;;23.43;;
46653;SDS011;38960;51.074;17.004;2022-12-11T05:41:17;36.87;;;23.73;;
46653;SDS011;38960;51.074;17.004;2022-12-11T05:43:44;31.53;;;21.97;;
46653;SDS011;38960;51.074;17.004;2022-12-11T05:46:17;36.37;;;23.23;;
46653;SDS011;38960;51.074;17.004;2022-12-11T05:48:45;36.10;;;22.47;;
46653;SDS011;38960;51.074;17.004;2022-12-11T05:51:12;36.03;;;22.53;;
46653;SDS011;38960;51.074;17.004;2022-12-11T05:53:38;34.03;;;23.17;;
46653;SDS011;38960;51.074;17.004;2022-12-11T05:56:05;39.93;;;23.53;;
46653;SDS011;38960;51.074;17.004;2022-12-11T05:58:32;33.80;;;22.53;;
46653;SDS011;38960;51.074;17.004;2022-12-11T06:01:00;31.87;;;21.10;;
46653;SDS011;38960;51.074;17.004;2022-12-11T06:03:26;33.20;;;21.47;;
46653;SDS011;38960;51.074;17.004;2022-12-11T06:05:52;34.10;;;21.60;;
46653;SDS011;38960;51.074;17.004;2022-12-11T06:08:17;32.53;;;20.93;;
46653;SDS011;38960;51.074;17.004;2022-12-11T06:10:46;34.20;;;22.07;;
46653;SDS011;38960;51.074;17.004;2022-12-11T06:13:12;35.93;;;22.10;;
46653;SDS011;38960;51.074;17.004;2022-12-11T06:15:39;33.30;;;21.47;;
46653;SDS011;38960;51.074;17.004;2022-12-11T06:18:04;33.73;;;20.40;;
46653;SDS011;38960;51.074;17.004;2022-12-11T06:20:33;31.73;;;20.23;;
46653;SDS011;38960;51.074;17.004;2022-12-11T06:22:59;32.60;;;20.43;;
46653;SDS011;38960;51.074;17.004;2022-12-11T06:25:25;28.60;;;19.97;;
46653;SDS011;38960;51.074;17.004;2022-12-11T06:27:51;31.87;;;19.77;;
46653;SDS011;38960;51.074;17.004;2022-12-11T06:30:17;29.30;;;19.20;;
46653;SDS011;38960;51.074;17.004;2022-12-11T06:32:43;31.00;;;19.63;;
46653;SDS011;38960;51.074;17.004;2022-12-11T06:35:08;30.17;;;19.27;;
46653;SDS011;38960;51.074;17.004;2022-12-11T06:37:35;30.10;;;19.47;;
46653;SDS011;38960;51.074;17.004;2022-12-11T06:40:01;30.77;;;19.90;;
46653;SDS011;38960;51.074;17.004;2022-12-11T06:42:31;33.53;;;20.13;;
46653;SDS011;38960;51.074;17.004;2022-12-11T06:44:56;32.57;;;19.83;;
46653;SDS011;38960;51.074;17.004;2022-12-11T06:47:27;28.77;;;18.97;;
46653;SDS011;38960;51.074;17.004;2022-12-11T06:49:54;30.87;;;19.80;;
46653;SDS011;38960;51.074;17.004;2022-12-11T06:52:20;32.10;;;20.70;;
46653;SDS011;38960;51.074;17.004;2022-12-11T06:54:46;33.00;;;20.00;;
46653;SDS011;38960;51.074;17.004;2022-12-11T06:57:11;29.60;;;19.23;;
46653;SDS011;38960;51.074;17.004;2022-12-11T06:59:37;31.37;;;19.87;;
46653;SDS011;38960;51.074;17.004;2022-12-11T07:02:03;28.40;;;19.07;;
46653;SDS011;38960;51.074;17.004;2022-12-11T07:04:28;28.87;;;19.17;;
46653;SDS011;38960;51.074;17.004;2022-12-11T07:06:55;29.17;;;19.40;;
46653;SDS011;38960;51.074;17.004;2022-12-11T07:09:21;29.50;;;19.63;;
46653;SDS011;38960;51.074;17.004;2022-12-11T07:11:50;28.93;;;19.33;;
46653;SDS011;38960;51.074;17.004;2022-12-11T07:14:16;29.83;;;20.27;;
46653;SDS011;38960;51.074;17.004;2022-12-11T07:16:42;31.77;;;21.27;;
46653;SDS011;38960;51.074;17.004;2022-12-11T07:19:07;33.10;;;20.17;;
46653;SDS011;38960;51.074;17.004;2022-12-11T07:21:33;33.67;;;20.40;;
46653;SDS011;38960;51.074;17.004;2022-12-11T07:23:58;31.70;;;20.60;;
46653;SDS011;38960;51.074;17.004;2022-12-11T07:26:24;34.80;;;21.17;;
46653;SDS011;38960;51.074;17.004;2022-12-11T07:28:50;32.67;;;20.10;;
46653;SDS011;38960;51.074;17.004;2022-12-11T07:31:17;27.93;;;18.37;;
46653;SDS011;38960;51.074;17.004;2022-12-11T07:33:44;29.10;;;19.23;;
46653;SDS011;38960;51.074;17.004;2022-12-11T07:36:10;30.50;;;19.10;;
46653;SDS011;38960;51.074;17.004;2022-12-11T07:38:37;32.17;;;18.87;;
46653;SDS011;38960;51.074;17.004;2022-12-11T07:41:03;28.90;;;19.10;;
46653;SDS011;38960;51.074;17.004;2022-12-11T07:43:30;30.33;;;20.27;;
46653;SDS011;38960;51.074;17.004;2022-12-11T07:46:01;27.27;;;18.93;;
46653;SDS011;38960;51.074;17.004;2022-12-11T07:48:28;30.23;;;19.17;;
46653;SDS011;38960;51.074;17.004;2022-12-11T07:50:53;27.87;;;18.53;;
46653;SDS011;38960;51.074;17.004;2022-12-11T07:53:19;29.67;;;18.90;;
46653;SDS011;38960;51.074;17.004;2022-12-11T07:55:44;33.07;;;18.17;;
46653;SDS011;38960;51.074;17.004;2022-12-11T07:58:10;28.93;;;18.33;;
46653;SDS011;38960;51.074;17.004;2022-12-11T08:00:35;25.70;;;17.13;;
46653;SDS011;38960;51.074;17.004;2022-12-11T08:03:01;28.60;;;18.50;;
46653;SDS011;38960;51.074;17.004;2022-12-11T08:05:27;29.60;;;19.73;;
46653;SDS011;38960;51.074;17.004;2022-12-11T08:07:52;28.00;;;17.90;;
46653;SDS011;38960;51.074;17.004;2022-12-11T08:10:18;33.83;;;19.07;;
46653;SDS011;38960;51.074;17.004;2022-12-11T08:12:43;25.07;;;17.13;;
46653;SDS011;38960;51.074;17.004;2022-12-11T08:15:09;28.17;;;17.73;;
46653;SDS011;38960;51.074;17.004;2022-12-11T08:17:34;30.30;;;18.93;;
46653;SDS011;38960;51.074;17.004;2022-12-11T08:20:01;32.90;;;17.97;;
46653;SDS011;38960;51.074;17.004;2022-12-11T08:22:27;29.67;;;19.20;;
46653;SDS011;38960;51.074;17.004;2022-12-11T08:24:52;29.80;;;18.23;;
46653;SDS011;38960;51.074;17.004;2022-12-11T08:27:18;27.10;;;17.23;;
46653;SDS011;38960;51.074;17.004;2022-12-11T08:29:44;28.87;;;19.60;;
46653;SDS011;38960;51.074;17.004;2022-12-11T08:32:11;25.57;;;18.07;;
46653;SDS011;38960;51.074;17.004;2022-12-11T08:34:38;28.17;;;17.83;;
46653;SDS011;38960;51.074;17.004;2022-12-11T08:37:04;27.40;;;16.87;;
46653;SDS011;38960;51.074;17.004;2022-12-11T08:39:30;26.03;;;16.87;;
46653;SDS011;38960;51.074;17.004;2022-12-11T08:41:55;26.33;;;16.50;;
46653;SDS011;38960;51.074;17.004;2022-12-11T08:44:21;27.70;;;17.43;;
46653;SDS011;38960;51.074;17.004;2022-12-11T08:46:49;28.97;;;17.27;;
46653;SDS011;38960;51.074;17.004;2022-12-11T08:49:14;24.30;;;15.10;;
46653;SDS011;38960;51.074;17.004;2022-12-11T08:51:40;26.80;;;15.40;;
46653;SDS011;38960;51.074;17.004;2022-12-11T08:54:05;32.13;;;15.47;;
46653;SDS011;38960;51.074;17.004;2022-12-11T08:56:31;28.07;;;16.47;;
46653;SDS011;38960;51.074;17.004;2022-12-11T08:59:00;25.03;;;17.07;;
46653;SDS011;38960;51.074;17.004;2022-12-11T09:01:26;27.73;;;16.60;;
46653;SDS011;38960;51.074;17.004;2022-12-11T09:03:53;25.50;;;16.23;;
46653;SDS011;38960;51.074;17.004;2022-12-11T09:06:21;25.13;;;15.97;;
46653;SDS011;38960;51.074;17.004;2022-12-11T09:08:48;30.83;;;19.13;;
46653;SDS011;38960;51.074;17.004;2022-12-11T09:11:16;28.37;;;18.07;;
46653;SDS011;38960;51.074;17.004;2022-12-11T09:13:43;27.13;;;17.70;;
46653;SDS011;38960;51.074;17.004;2022-12-11T09:16:10;26.90;;;17.23;;
46653;SDS011;38960;51.074;17.004;2022-12-11T09:18:38;26.50;;;18.47;;
46653;SDS011;38960;51.074;17.004;2022-12-11T09:21:05;28.60;;;17.80;;
46653;SDS011;38960;51.074;17.004;2022-12-11T09:23:32;25.27;;;17.00;;
46653;SDS011;38960;51.074;17.004;2022-12-11T09:25:58;26.53;;;17.20;;
46653;SDS011;38960;51.074;17.004;2022-12-11T09:28:24;28.10;;;17.13;;
46653;SDS011;38960;51.074;17.004;2022-12-11T09:30:50;24.30;;;16.60;;
46653;SDS011;38960;51.074;17.004;2022-12-11T09:33:16;26.00;;;16.67;;
46653;SDS011;38960;51.074;17.004;2022-12-11T09:35:42;23.57;;;16.17;;
46653;SDS011;38960;51.074;17.004;2022-12-11T09:38:07;27.60;;;18.13;;
46653;SDS011;38960;51.074;17.004;2022-12-11T09:40:37;31.93;;;19.87;;
46653;SDS011;38960;51.074;17.004;2022-12-11T09:43:17;31.77;;;18.60;;
46653;SDS011;38960;51.074;17.004;2022-12-11T09:45:44;31.10;;;18.80;;
46653;SDS011;38960;51.074;17.004;2022-12-11T09:48:10;30.60;;;19.13;;
46653;SDS011;38960;51.074;17.004;2022-12-11T09:50:37;29.13;;;19.33;;
46653;SDS011;38960;51.074;17.004;2022-12-11T10:07:10;36.10;;;18.93;;
46653;SDS011;38960;51.074;17.004;2022-12-11T10:09:48;27.80;;;16.20;;
46653;SDS011;38960;51.074;17.004;2022-12-11T10:12:34;28.47;;;16.93;;
46653;SDS011;38960;51.074;17.004;2022-12-11T10:17:34;18.50;;;13.07;;
46653;SDS011;38960;51.074;17.004;2022-12-11T10:20:22;23.80;;;13.27;;
46653;SDS011;38960;51.074;17.004;2022-12-11T10:23:01;22.13;;;13.70;;
46653;SDS011;38960;51.074;17.004;2022-12-11T10:25:28;22.00;;;13.97;;
46653;SDS011;38960;51.074;17.004;2022-12-11T10:27:56;23.47;;;14.23;;
46653;SDS011;38960;51.074;17.004;2022-12-11T10:30:26;26.53;;;13.53;;
46653;SDS011;38960;51.074;17.004;2022-12-11T10:35:38;22.50;;;12.77;;
46653;SDS011;38960;51.074;17.004;2022-12-11T10:38:19;18.93;;;12.20;;
46653;SDS011;38960;51.074;17.004;2022-12-11T10:40:59;23.50;;;11.90;;
46653;SDS011;38960;51.074;17.004;2022-12-11T10:46:02;22.90;;;12.43;;
46653;SDS011;38960;51.074;17.004;2022-12-11T10:48:29;20.43;;;12.37;;
46653;SDS011;38960;51.074;17.004;2022-12-11T10:51:04;21.93;;;12.73;;
46653;SDS011;38960;51.074;17.004;2022-12-11T10:53:32;20.73;;;12.20;;
46653;SDS011;38960;51.074;17.004;2022-12-11T10:55:58;29.30;;;12.27;;
46653;SDS011;38960;51.074;17.004;2022-12-11T10:58:24;18.80;;;12.43;;
46653;SDS011;38960;51.074;17.004;2022-12-11T11:01:04;22.10;;;12.93;;
46653;SDS011;38960;51.074;17.004;2022-12-11T11:03:30;25.50;;;13.43;;
46653;SDS011;38960;51.074;17.004;2022-12-11T11:06:13;27.47;;;13.73;;
46653;SDS011;38960;51.074;17.004;2022-12-11T11:08:42;20.77;;;12.10;;
46653;SDS011;38960;51.074;17.004;2022-12-11T11:16:42;16.00;;;10.03;;
46653;SDS011;38960;51.074;17.004;2022-12-11T11:22:07;22.23;;;12.83;;
46653;SDS011;38960;51.074;17.004;2022-12-11T11:24:38;18.70;;;11.93;;
46653;SDS011;38960;51.074;17.004;2022-12-11T11:28:06;20.03;;;11.23;;
46653;SDS011;38960;51.074;17.004;2022-12-11T11:30:27;18.13;;;11.37;;
46653;SDS011;38960;51.074;17.004;2022-12-11T11:33:46;24.47;;;13.20;;
46653;SDS011;38960;51.074;17.004;2022-12-11T11:35:51;20.10;;;13.47;;
46653;SDS011;38960;51.074;17.004;2022-12-11T11:38:18;21.33;;;11.70;;
46653;SDS011;38960;51.074;17.004;2022-12-11T11:40:48;16.83;;;10.53;;
46653;SDS011;38960;51.074;17.004;2022-12-11T11:43:18;25.42;;;11.55;;
46653;SDS011;38960;51.074;17.004;2022-12-11T11:46:03;25.83;;;12.07;;
46653;SDS011;38960;51.074;17.004;2022-12-11T11:51:18;19.70;;;11.30;;
46653;SDS011;38960;51.074;17.004;2022-12-11T11:53:50;18.73;;;9.53;;
46653;SDS011;38960;51.074;17.004;2022-12-11T11:56:20;16.37;;;10.13;;
46653;SDS011;38960;51.074;17.004;2022-12-11T11:58:55;21.73;;;12.13;;
46653;SDS011;38960;51.074;17.004;2022-12-11T12:01:24;17.50;;;11.00;;
46653;SDS011;38960;51.074;17.004;2022-12-11T12:03:50;19.17;;;12.17;;
46653;SDS011;38960;51.074;17.004;2022-12-11T12:11:27;22.50;;;11.93;;
46653;SDS011;38960;51.074;17.004;2022-12-11T12:21:49;19.40;;;11.73;;
46653;SDS011;38960;51.074;17.004;2022-12-11T12:24:33;19.23;;;11.87;;
46653;SDS011;38960;51.074;17.004;2022-12-11T12:40:33;22.27;;;11.90;;
46653;SDS011;38960;51.074;17.004;2022-12-11T12:43:04;21.00;;;12.33;;
46653;SDS011;38960;51.074;17.004;2022-12-11T12:45:37;16.57;;;11.07;;
46653;SDS011;38960;51.074;17.004;2022-12-11T12:48:12;19.70;;;12.97;;
46653;SDS011;38960;51.074;17.004;2022-12-11T12:50:39;22.63;;;13.40;;
46653;SDS011;38960;51.074;17.004;2022-12-11T12:53:06;22.13;;;13.27;;
46653;SDS011;38960;51.074;17.004;2022-12-11T12:55:38;24.13;;;13.63;;
46653;SDS011;38960;51.074;17.004;2022-12-11T12:58:04;24.00;;;13.17;;
46653;SDS011;38960;51.074;17.004;2022-12-11T13:00:32;23.83;;;13.20;;
46653;SDS011;38960;51.074;17.004;2022-12-11T13:03:01;23.90;;;13.60;;
46653;SDS011;38960;51.074;17.004;2022-12-11T13:08:43;18.93;;;12.33;;
46653;SDS011;38960;51.074;17.004;2022-12-11T13:11:11;23.67;;;13.57;;
46653;SDS011;38960;51.074;17.004;2022-12-11T13:13:43;21.93;;;11.97;;
46653;SDS011;38960;51.074;17.004;2022-12-11T13:18:39;21.33;;;11.30;;
46653;SDS011;38960;51.074;17.004;2022-12-11T13:24:11;23.33;;;12.60;;
46653;SDS011;38960;51.074;17.004;2022-12-11T13:26:41;18.10;;;10.87;;
46653;SDS011;38960;51.074;17.004;2022-12-11T13:29:26;15.30;;;9.93;;
46653;SDS011;38960;51.074;17.004;2022-12-11T13:34:38;20.47;;;10.07;;
46653;SDS011;38960;51.074;17.004;2022-12-11T13:37:04;16.97;;;9.70;;
46653;SDS011;38960;51.074;17.004;2022-12-11T13:39:36;24.57;;;15.23;;
46653;SDS011;38960;51.074;17.004;2022-12-11T13:42:03;17.57;;;10.63;;
46653;SDS011;38960;51.074;17.004;2022-12-11T13:44:35;16.67;;;10.07;;
46653;SDS011;38960;51.074;17.004;2022-12-11T13:47:04;15.50;;;9.60;;
46653;SDS011;38960;51.074;17.004;2022-12-11T13:49:33;15.80;;;10.43;;
46653;SDS011;38960;51.074;17.004;2022-12-11T13:52:01;18.33;;;10.63;;
46653;SDS011;38960;51.074;17.004;2022-12-11T13:54:28;18.17;;;10.43;;
46653;SDS011;38960;51.074;17.004;2022-12-11T13:56:59;15.03;;;10.20;;
46653;SDS011;38960;51.074;17.004;2022-12-11T13:59:26;17.40;;;10.50;;
46653;SDS011;38960;51.074;17.004;2022-12-11T14:01:58;16.93;;;10.97;;
46653;SDS011;38960;51.074;17.004;2022-12-11T14:04:25;16.67;;;10.50;;
46653;SDS011;38960;51.074;17.004;2022-12-11T14:06:52;17.43;;;10.53;;
46653;SDS011;38960;51.074;17.004;2022-12-11T14:09:19;17.50;;;11.23;;
46653;SDS011;38960;51.074;17.004;2022-12-11T14:11:46;17.57;;;11.43;;
46653;SDS011;38960;51.074;17.004;2022-12-11T14:16:49;18.97;;;12.47;;
46653;SDS011;38960;51.074;17.004;2022-12-11T14:19:16;20.43;;;11.97;;
46653;SDS011;38960;51.074;17.004;2022-12-11T14:21:53;23.03;;;12.90;;
46653;SDS011;38960;51.074;17.004;2022-12-11T14:24:20;17.63;;;12.00;;
46653;SDS011;38960;51.074;17.004;2022-12-11T14:26:49;19.40;;;12.00;;
46653;SDS011;38960;51.074;17.004;2022-12-11T14:32:08;18.40;;;11.68;;
46653;SDS011;38960;51.074;17.004;2022-12-11T14:34:45;19.73;;;12.37;;
46653;SDS011;38960;51.074;17.004;2022-12-11T14:37:13;17.77;;;10.93;;
46653;SDS011;38960;51.074;17.004;2022-12-11T14:39:43;17.13;;;11.03;;
46653;SDS011;38960;51.074;17.004;2022-12-11T14:42:14;14.93;;;10.23;;
46653;SDS011;38960;51.074;17.004;2022-12-11T14:47:12;16.20;;;9.57;;
46653;SDS011;38960;51.074;17.004;2022-12-11T14:52:18;16.77;;;9.97;;
46653;SDS011;38960;51.074;17.004;2022-12-11T14:54:49;15.10;;;9.40;;
46653;SDS011;38960;51.074;17.004;2022-12-11T14:57:24;16.80;;;9.47;;
46653;SDS011;38960;51.074;17.004;2022-12-11T14:59:55;22.20;;;10.02;;
46653;SDS011;38960;51.074;17.004;2022-12-11T15:02:24;17.37;;;9.83;;
46653;SDS011;38960;51.074;17.004;2022-12-11T15:10:41;16.27;;;10.40;;
46653;SDS011;38960;51.074;17.004;2022-12-11T15:13:27;18.53;;;10.50;;
46653;SDS011;38960;51.074;17.004;2022-12-11T15:15:55;16.83;;;10.30;;
46653;SDS011;38960;51.074;17.004;2022-12-11T15:18:34;25.03;;;11.70;;
46653;SDS011;38960;51.074;17.004;2022-12-11T15:21:05;17.60;;;10.93;;
46653;SDS011;38960;51.074;17.004;2022-12-11T15:23:48;18.77;;;10.37;;
46653;SDS011;38960;51.074;17.004;2022-12-11T15:26:16;16.20;;;10.33;;
46653;SDS011;38960;51.074;17.004;2022-12-11T15:28:41;15.83;;;10.60;;
46653;SDS011;38960;51.074;17.004;2022-12-11T15:31:27;18.60;;;11.17;;
46653;SDS011;38960;51.074;17.004;2022-12-11T15:33:54;18.60;;;9.90;;
46653;SDS011;38960;51.074;17.004;2022-12-11T15:38:56;19.93;;;11.27;;
46653;SDS011;38960;51.074;17.004;2022-12-11T15:41:21;18.37;;;10.00;;
46653;SDS011;38960;51.074;17.004;2022-12-11T15:43:51;19.23;;;10.97;;
46653;SDS011;38960;51.074;17.004;2022-12-11T15:46:18;17.93;;;10.43;;
46653;SDS011;38960;51.074;17.004;2022-12-11T15:48:43;21.23;;;11.80;;
46653;SDS011;38960;51.074;17.004;2022-12-11T15:51:09;21.10;;;10.77;;
46653;SDS011;38960;51.074;17.004;2022-12-11T15:53:35;17.40;;;10.13;;
46653;SDS011;38960;51.074;17.004;2022-12-11T15:56:00;15.83;;;10.07;;
46653;SDS011;38960;51.074;17.004;2022-12-11T15:58:26;15.80;;;9.83;;
46653;SDS011;38960;51.074;17.004;2022-12-11T16:00:52;17.43;;;9.70;;
46653;SDS011;38960;51.074;17.004;2022-12-11T16:03:19;15.07;;;8.97;;
46653;SDS011;38960;51.074;17.004;2022-12-11T16:05:46;15.57;;;10.27;;